sensor_id;sensor_type;location;lat;lon;timestamp;P1;durP1;ratioP1;P2;durP2;ratioP2
9334;SDS011;4706;41.844;26.082;2023-04-06T00:00:43;10.18;;;9.27;;
9334;SDS011;4706;41.844;26.082;2023-04-06T00:03:08;10.10;;;9.20;;
9334;SDS011;4706;41.844;26.082;2023-04-06T00:05:33;9.45;;;8.65;;
9334;SDS011;4706;41.844;26.082;2023-04-06T00:07:59;9.90;;;9.10;;
9334;SDS011;4706;41.844;26.082;2023-04-06T00:10:25;10.57;;;9.68;;
9334;SDS011;4706;41.844;26.082;2023-04-06T00:12:51;10.20;;;9.35;;
9334;SDS011;4706;41.844;26.082;2023-04-06T00:15:17;10.90;;;10.00;;
9334;SDS011;4706;41.844;26.082;2023-04-06T00:17:42;10.15;;;9.35;;
9334;SDS011;4706;41.844;26.082;2023-04-06T00:20:08;10.27;;;9.48;;
9334;SDS011;4706;41.844;26.082;2023-04-06T00:22:34;10.32;;;9.52;;
9334;SDS011;4706;41.844;26.082;2023-04-06T00:25:00;10.30;;;9.40;;
9334;SDS011;4706;41.844;26.082;2023-04-06T00:27:26;10.40;;;9.50;;
9334;SDS011;4706;41.844;26.082;2023-04-06T00:29:51;11.50;;;10.50;;
9334;SDS011;4706;41.844;26.082;2023-04-06T00:32:17;10.63;;;9.73;;
9334;SDS011;4706;41.844;26.082;2023-04-06T00:34:42;11.07;;;10.15;;
9334;SDS011;4706;41.844;26.082;2023-04-06T00:37:07;11.98;;;10.98;;
9334;SDS011;4706;41.844;26.082;2023-04-06T00:39:33;10.68;;;9.77;;
9334;SDS011;4706;41.844;26.082;2023-04-06T00:41:58;10.93;;;9.93;;
9334;SDS011;4706;41.844;26.082;2023-04-06T00:44:25;11.13;;;10.15;;
9334;SDS011;4706;41.844;26.082;2023-04-06T00:46:51;11.70;;;10.68;;
9334;SDS011;4706;41.844;26.082;2023-04-06T00:49:17;10.65;;;9.75;;
9334;SDS011;4706;41.844;26.082;2023-04-06T00:51:43;10.35;;;9.50;;
9334;SDS011;4706;41.844;26.082;2023-04-06T00:54:08;11.18;;;10.18;;
9334;SDS011;4706;41.844;26.082;2023-04-06T00:56:34;13.30;;;12.00;;
9334;SDS011;4706;41.844;26.082;2023-04-06T00:59:00;15.07;;;12.23;;
9334;SDS011;4706;41.844;26.082;2023-04-06T01:01:26;15.95;;;14.13;;
9334;SDS011;4706;41.844;26.082;2023-04-06T01:03:51;14.73;;;13.27;;
9334;SDS011;4706;41.844;26.082;2023-04-06T01:06:17;12.48;;;11.40;;
9334;SDS011;4706;41.844;26.082;2023-04-06T01:08:43;12.18;;;11.07;;
9334;SDS011;4706;41.844;26.082;2023-04-06T01:11:08;11.18;;;10.27;;
9334;SDS011;4706;41.844;26.082;2023-04-06T01:13:34;12.00;;;10.90;;
9334;SDS011;4706;41.844;26.082;2023-04-06T01:16:00;11.30;;;10.20;;
9334;SDS011;4706;41.844;26.082;2023-04-06T01:18:26;11.50;;;10.50;;
9334;SDS011;4706;41.844;26.082;2023-04-06T01:20:52;11.60;;;10.48;;
9334;SDS011;4706;41.844;26.082;2023-04-06T01:23:18;11.10;;;10.20;;
9334;SDS011;4706;41.844;26.082;2023-04-06T01:25:43;11.55;;;10.48;;
9334;SDS011;4706;41.844;26.082;2023-04-06T01:28:09;11.15;;;10.20;;
9334;SDS011;4706;41.844;26.082;2023-04-06T01:30:35;11.73;;;10.63;;
9334;SDS011;4706;41.844;26.082;2023-04-06T01:33:01;12.23;;;10.93;;
9334;SDS011;4706;41.844;26.082;2023-04-06T01:35:26;12.47;;;11.17;;
9334;SDS011;4706;41.844;26.082;2023-04-06T01:37:53;12.50;;;11.20;;
9334;SDS011;4706;41.844;26.082;2023-04-06T01:40:18;11.57;;;10.57;;
9334;SDS011;4706;41.844;26.082;2023-04-06T01:42:44;12.43;;;11.30;;
9334;SDS011;4706;41.844;26.082;2023-04-06T01:45:10;12.60;;;11.40;;
9334;SDS011;4706;41.844;26.082;2023-04-06T01:47:35;12.55;;;11.45;;
9334;SDS011;4706;41.844;26.082;2023-04-06T01:50:01;13.15;;;11.77;;
9334;SDS011;4706;41.844;26.082;2023-04-06T01:52:30;12.85;;;11.75;;
9334;SDS011;4706;41.844;26.082;2023-04-06T01:54:55;12.32;;;11.32;;
9334;SDS011;4706;41.844;26.082;2023-04-06T01:57:21;12.38;;;11.27;;
9334;SDS011;4706;41.844;26.082;2023-04-06T01:59:46;12.43;;;11.33;;
9334;SDS011;4706;41.844;26.082;2023-04-06T02:02:12;12.18;;;11.07;;
9334;SDS011;4706;41.844;26.082;2023-04-06T02:04:38;12.33;;;11.13;;
9334;SDS011;4706;41.844;26.082;2023-04-06T02:07:03;12.70;;;11.60;;
9334;SDS011;4706;41.844;26.082;2023-04-06T02:09:29;12.88;;;11.77;;
9334;SDS011;4706;41.844;26.082;2023-04-06T02:11:55;12.70;;;11.57;;
9334;SDS011;4706;41.844;26.082;2023-04-06T02:14:20;12.73;;;11.52;;
9334;SDS011;4706;41.844;26.082;2023-04-06T02:16:49;13.80;;;12.60;;
9334;SDS011;4706;41.844;26.082;2023-04-06T02:19:15;13.88;;;12.45;;
9334;SDS011;4706;41.844;26.082;2023-04-06T02:21:41;17.25;;;15.10;;
9334;SDS011;4706;41.844;26.082;2023-04-06T02:24:06;21.43;;;19.10;;
9334;SDS011;4706;41.844;26.082;2023-04-06T02:26:32;14.67;;;13.10;;
9334;SDS011;4706;41.844;26.082;2023-04-06T02:28:57;15.33;;;13.83;;
9334;SDS011;4706;41.844;26.082;2023-04-06T02:31:23;15.00;;;13.50;;
9334;SDS011;4706;41.844;26.082;2023-04-06T02:33:48;15.70;;;14.03;;
9334;SDS011;4706;41.844;26.082;2023-04-06T02:36:14;14.77;;;13.37;;
9334;SDS011;4706;41.844;26.082;2023-04-06T02:38:39;12.90;;;11.70;;
9334;SDS011;4706;41.844;26.082;2023-04-06T02:41:05;13.07;;;11.77;;
9334;SDS011;4706;41.844;26.082;2023-04-06T02:43:30;13.47;;;11.90;;
9334;SDS011;4706;41.844;26.082;2023-04-06T02:45:56;13.20;;;12.03;;
9334;SDS011;4706;41.844;26.082;2023-04-06T02:48:21;13.60;;;12.40;;
9334;SDS011;4706;41.844;26.082;2023-04-06T02:50:47;14.07;;;12.70;;
9334;SDS011;4706;41.844;26.082;2023-04-06T02:53:12;14.40;;;13.10;;
9334;SDS011;4706;41.844;26.082;2023-04-06T02:55:38;14.90;;;13.50;;
9334;SDS011;4706;41.844;26.082;2023-04-06T02:58:04;15.73;;;14.27;;
9334;SDS011;4706;41.844;26.082;2023-04-06T03:00:29;16.77;;;15.07;;
9334;SDS011;4706;41.844;26.082;2023-04-06T03:02:55;16.08;;;14.48;;
9334;SDS011;4706;41.844;26.082;2023-04-06T03:05:20;16.27;;;14.77;;
9334;SDS011;4706;41.844;26.082;2023-04-06T03:07:46;15.47;;;14.07;;
9334;SDS011;4706;41.844;26.082;2023-04-06T03:10:11;16.40;;;14.90;;
9334;SDS011;4706;41.844;26.082;2023-04-06T03:12:37;16.23;;;14.73;;
9334;SDS011;4706;41.844;26.082;2023-04-06T03:15:02;16.70;;;15.20;;
9334;SDS011;4706;41.844;26.082;2023-04-06T03:17:28;16.37;;;14.77;;
9334;SDS011;4706;41.844;26.082;2023-04-06T03:19:54;16.10;;;14.68;;
9334;SDS011;4706;41.844;26.082;2023-04-06T03:22:20;18.33;;;16.48;;
9334;SDS011;4706;41.844;26.082;2023-04-06T03:24:45;17.27;;;15.57;;
9334;SDS011;4706;41.844;26.082;2023-04-06T03:27:11;17.83;;;16.23;;
9334;SDS011;4706;41.844;26.082;2023-04-06T03:29:36;19.17;;;17.37;;
9334;SDS011;4706;41.844;26.082;2023-04-06T03:32:02;20.93;;;18.93;;
9334;SDS011;4706;41.844;26.082;2023-04-06T03:34:28;26.27;;;23.77;;
9334;SDS011;4706;41.844;26.082;2023-04-06T03:36:53;22.53;;;20.40;;
9334;SDS011;4706;41.844;26.082;2023-04-06T03:39:19;23.33;;;20.93;;
9334;SDS011;4706;41.844;26.082;2023-04-06T03:41:44;26.57;;;23.60;;
9334;SDS011;4706;41.844;26.082;2023-04-06T03:44:10;28.00;;;25.50;;
9334;SDS011;4706;41.844;26.082;2023-04-06T03:46:36;30.17;;;27.37;;
9334;SDS011;4706;41.844;26.082;2023-04-06T03:49:01;32.23;;;29.17;;
9334;SDS011;4706;41.844;26.082;2023-04-06T03:51:27;38.83;;;34.90;;
9334;SDS011;4706;41.844;26.082;2023-04-06T03:53:53;40.13;;;35.83;;
9334;SDS011;4706;41.844;26.082;2023-04-06T03:56:18;52.38;;;46.55;;
9334;SDS011;4706;41.844;26.082;2023-04-06T03:58:44;48.63;;;43.57;;
9334;SDS011;4706;41.844;26.082;2023-04-06T04:01:16;42.80;;;38.27;;
9334;SDS011;4706;41.844;26.082;2023-04-06T04:03:43;40.53;;;36.37;;
9334;SDS011;4706;41.844;26.082;2023-04-06T04:06:09;39.23;;;35.43;;
9334;SDS011;4706;41.844;26.082;2023-04-06T04:08:34;34.73;;;31.43;;
9334;SDS011;4706;41.844;26.082;2023-04-06T04:11:00;34.17;;;30.77;;
9334;SDS011;4706;41.844;26.082;2023-04-06T04:13:26;32.77;;;29.60;;
9334;SDS011;4706;41.844;26.082;2023-04-06T04:15:51;35.33;;;31.73;;
9334;SDS011;4706;41.844;26.082;2023-04-06T04:18:18;31.40;;;28.40;;
9334;SDS011;4706;41.844;26.082;2023-04-06T04:20:44;31.33;;;28.33;;
9334;SDS011;4706;41.844;26.082;2023-04-06T04:23:09;31.23;;;27.90;;
9334;SDS011;4706;41.844;26.082;2023-04-06T04:25:35;32.23;;;28.60;;
9334;SDS011;4706;41.844;26.082;2023-04-06T04:28:01;31.03;;;27.87;;
9334;SDS011;4706;41.844;26.082;2023-04-06T04:30:27;34.60;;;30.83;;
9334;SDS011;4706;41.844;26.082;2023-04-06T04:32:52;33.93;;;30.27;;
9334;SDS011;4706;41.844;26.082;2023-04-06T04:35:18;28.23;;;25.33;;
9334;SDS011;4706;41.844;26.082;2023-04-06T04:37:43;29.93;;;26.40;;
9334;SDS011;4706;41.844;26.082;2023-04-06T04:40:09;27.53;;;24.27;;
9334;SDS011;4706;41.844;26.082;2023-04-06T04:42:35;29.17;;;26.00;;
9334;SDS011;4706;41.844;26.082;2023-04-06T04:45:02;26.63;;;24.13;;
9334;SDS011;4706;41.844;26.082;2023-04-06T04:47:28;26.10;;;23.40;;
9334;SDS011;4706;41.844;26.082;2023-04-06T04:49:53;35.88;;;24.58;;
9334;SDS011;4706;41.844;26.082;2023-04-06T04:52:19;28.98;;;21.33;;
9334;SDS011;4706;41.844;26.082;2023-04-06T04:54:44;22.47;;;19.80;;
9334;SDS011;4706;41.844;26.082;2023-04-06T04:57:12;31.10;;;18.90;;
9334;SDS011;4706;41.844;26.082;2023-04-06T04:59:37;18.27;;;15.40;;
9334;SDS011;4706;41.844;26.082;2023-04-06T05:02:03;19.88;;;14.13;;
9334;SDS011;4706;41.844;26.082;2023-04-06T05:04:28;13.23;;;11.83;;
9334;SDS011;4706;41.844;26.082;2023-04-06T05:07:03;12.57;;;11.30;;
9334;SDS011;4706;41.844;26.082;2023-04-06T05:09:30;17.77;;;13.18;;
9334;SDS011;4706;41.844;26.082;2023-04-06T05:11:56;31.15;;;21.88;;
9334;SDS011;4706;41.844;26.082;2023-04-06T05:14:23;27.45;;;18.58;;
9334;SDS011;4706;41.844;26.082;2023-04-06T05:16:48;17.67;;;15.48;;
9334;SDS011;4706;41.844;26.082;2023-04-06T05:19:14;17.95;;;15.43;;
9334;SDS011;4706;41.844;26.082;2023-04-06T05:21:40;17.25;;;13.32;;
9334;SDS011;4706;41.844;26.082;2023-04-06T05:24:06;17.40;;;15.67;;
9334;SDS011;4706;41.844;26.082;2023-04-06T05:26:32;14.75;;;12.75;;
9334;SDS011;4706;41.844;26.082;2023-04-06T05:28:57;12.48;;;10.60;;
9334;SDS011;4706;41.844;26.082;2023-04-06T05:31:23;17.67;;;12.75;;
9334;SDS011;4706;41.844;26.082;2023-04-06T05:33:49;12.65;;;11.55;;
9334;SDS011;4706;41.844;26.082;2023-04-06T05:36:14;11.07;;;10.05;;
9334;SDS011;4706;41.844;26.082;2023-04-06T05:38:40;11.20;;;10.20;;
9334;SDS011;4706;41.844;26.082;2023-04-06T05:41:06;18.60;;;11.55;;
9334;SDS011;4706;41.844;26.082;2023-04-06T05:43:31;13.70;;;11.25;;
9334;SDS011;4706;41.844;26.082;2023-04-06T05:45:57;11.98;;;10.88;;
9334;SDS011;4706;41.844;26.082;2023-04-06T05:48:22;14.48;;;13.18;;
9334;SDS011;4706;41.844;26.082;2023-04-06T05:50:48;14.00;;;12.60;;
9334;SDS011;4706;41.844;26.082;2023-04-06T05:53:18;14.20;;;11.43;;
9334;SDS011;4706;41.844;26.082;2023-04-06T05:55:43;11.75;;;10.65;;
9334;SDS011;4706;41.844;26.082;2023-04-06T05:58:09;33.90;;;12.68;;
9334;SDS011;4706;41.844;26.082;2023-04-06T06:00:35;14.18;;;11.55;;
9334;SDS011;4706;41.844;26.082;2023-04-06T06:03:00;16.50;;;12.00;;
9334;SDS011;4706;41.844;26.082;2023-04-06T06:05:29;14.60;;;13.00;;
9334;SDS011;4706;41.844;26.082;2023-04-06T06:07:55;14.27;;;11.15;;
9334;SDS011;4706;41.844;26.082;2023-04-06T06:10:21;18.75;;;13.85;;
9334;SDS011;4706;41.844;26.082;2023-04-06T06:12:46;13.00;;;11.63;;
9334;SDS011;4706;41.844;26.082;2023-04-06T06:15:12;13.10;;;11.75;;
9334;SDS011;4706;41.844;26.082;2023-04-06T06:17:38;15.57;;;12.55;;
9334;SDS011;4706;41.844;26.082;2023-04-06T06:20:05;16.58;;;11.68;;
9334;SDS011;4706;41.844;26.082;2023-04-06T06:22:31;15.45;;;12.43;;
9334;SDS011;4706;41.844;26.082;2023-04-06T06:24:57;12.80;;;11.48;;
9334;SDS011;4706;41.844;26.082;2023-04-06T06:27:23;13.75;;;12.32;;
9334;SDS011;4706;41.844;26.082;2023-04-06T06:29:48;15.68;;;12.20;;
9334;SDS011;4706;41.844;26.082;2023-04-06T06:32:14;12.98;;;11.68;;
9334;SDS011;4706;41.844;26.082;2023-04-06T06:34:40;13.02;;;11.23;;
9334;SDS011;4706;41.844;26.082;2023-04-06T06:37:06;13.23;;;11.85;;
9334;SDS011;4706;41.844;26.082;2023-04-06T06:42:07;11.10;;;10.10;;
9334;SDS011;4706;41.844;26.082;2023-04-06T06:44:32;17.83;;;12.43;;
9334;SDS011;4706;41.844;26.082;2023-04-06T06:46:58;13.23;;;11.90;;
9334;SDS011;4706;41.844;26.082;2023-04-06T06:49:23;13.32;;;12.02;;
9334;SDS011;4706;41.844;26.082;2023-04-06T06:51:49;16.13;;;13.18;;
9334;SDS011;4706;41.844;26.082;2023-04-06T06:54:14;13.43;;;12.18;;
9334;SDS011;4706;41.844;26.082;2023-04-06T06:56:40;12.20;;;11.10;;
9334;SDS011;4706;41.844;26.082;2023-04-06T06:59:05;19.52;;;17.58;;
9334;SDS011;4706;41.844;26.082;2023-04-06T07:01:34;21.92;;;17.63;;
9334;SDS011;4706;41.844;26.082;2023-04-06T07:03:59;15.63;;;13.95;;
9334;SDS011;4706;41.844;26.082;2023-04-06T07:06:25;13.52;;;12.13;;
9334;SDS011;4706;41.844;26.082;2023-04-06T07:08:51;11.95;;;10.85;;
9334;SDS011;4706;41.844;26.082;2023-04-06T07:11:16;12.25;;;11.07;;
9334;SDS011;4706;41.844;26.082;2023-04-06T07:13:42;12.55;;;11.35;;
9334;SDS011;4706;41.844;26.082;2023-04-06T07:16:08;12.93;;;11.48;;
9334;SDS011;4706;41.844;26.082;2023-04-06T07:18:33;13.45;;;12.15;;
9334;SDS011;4706;41.844;26.082;2023-04-06T07:20:59;12.05;;;10.95;;
9334;SDS011;4706;41.844;26.082;2023-04-06T07:23:25;15.60;;;13.98;;
9334;SDS011;4706;41.844;26.082;2023-04-06T07:25:50;16.25;;;11.02;;
9334;SDS011;4706;41.844;26.082;2023-04-06T07:28:17;11.88;;;10.68;;
9334;SDS011;4706;41.844;26.082;2023-04-06T07:30:43;10.60;;;9.50;;
9334;SDS011;4706;41.844;26.082;2023-04-06T07:33:08;10.93;;;9.80;;
9334;SDS011;4706;41.844;26.082;2023-04-06T07:35:34;11.10;;;10.00;;
9334;SDS011;4706;41.844;26.082;2023-04-06T07:38:01;10.35;;;9.25;;
9334;SDS011;4706;41.844;26.082;2023-04-06T07:40:27;9.77;;;8.98;;
9334;SDS011;4706;41.844;26.082;2023-04-06T07:42:53;11.35;;;10.35;;
9334;SDS011;4706;41.844;26.082;2023-04-06T07:45:18;12.27;;;10.25;;
9334;SDS011;4706;41.844;26.082;2023-04-06T07:47:44;9.45;;;8.63;;
9334;SDS011;4706;41.844;26.082;2023-04-06T07:50:10;10.32;;;9.15;;
9334;SDS011;4706;41.844;26.082;2023-04-06T07:52:36;10.27;;;9.27;;
9334;SDS011;4706;41.844;26.082;2023-04-06T07:55:01;10.15;;;9.15;;
9334;SDS011;4706;41.844;26.082;2023-04-06T07:57:27;9.05;;;8.35;;
9334;SDS011;4706;41.844;26.082;2023-04-06T07:59:53;10.60;;;9.63;;
9334;SDS011;4706;41.844;26.082;2023-04-06T08:02:18;10.43;;;9.35;;
9334;SDS011;4706;41.844;26.082;2023-04-06T08:04:44;12.07;;;10.98;;
9334;SDS011;4706;41.844;26.082;2023-04-06T08:07:10;9.75;;;8.85;;
9334;SDS011;4706;41.844;26.082;2023-04-06T08:09:36;10.48;;;9.48;;
9334;SDS011;4706;41.844;26.082;2023-04-06T08:12:01;11.18;;;10.02;;
9334;SDS011;4706;41.844;26.082;2023-04-06T08:14:27;11.13;;;9.95;;
9334;SDS011;4706;41.844;26.082;2023-04-06T08:16:52;10.40;;;9.40;;
9334;SDS011;4706;41.844;26.082;2023-04-06T08:19:18;9.27;;;8.40;;
9334;SDS011;4706;41.844;26.082;2023-04-06T08:21:44;10.07;;;9.07;;
9334;SDS011;4706;41.844;26.082;2023-04-06T08:24:11;9.13;;;8.43;;
9334;SDS011;4706;41.844;26.082;2023-04-06T08:26:37;8.68;;;7.97;;
9334;SDS011;4706;41.844;26.082;2023-04-06T08:29:02;8.98;;;8.07;;
9334;SDS011;4706;41.844;26.082;2023-04-06T08:31:29;9.45;;;8.60;;
9334;SDS011;4706;41.844;26.082;2023-04-06T08:33:55;10.93;;;9.48;;
9334;SDS011;4706;41.844;26.082;2023-04-06T08:36:21;8.43;;;7.63;;
9334;SDS011;4706;41.844;26.082;2023-04-06T08:38:48;8.82;;;8.00;;
9334;SDS011;4706;41.844;26.082;2023-04-06T08:41:15;7.65;;;7.05;;
9334;SDS011;4706;41.844;26.082;2023-04-06T08:43:43;9.45;;;7.38;;
9334;SDS011;4706;41.844;26.082;2023-04-06T08:46:11;7.95;;;7.25;;
9334;SDS011;4706;41.844;26.082;2023-04-06T08:48:41;8.55;;;7.63;;
9334;SDS011;4706;41.844;26.082;2023-04-06T08:51:11;7.72;;;7.13;;
9334;SDS011;4706;41.844;26.082;2023-04-06T08:53:37;8.32;;;7.63;;
9334;SDS011;4706;41.844;26.082;2023-04-06T08:56:03;8.45;;;7.70;;
9334;SDS011;4706;41.844;26.082;2023-04-06T08:58:34;7.90;;;7.30;;
9334;SDS011;4706;41.844;26.082;2023-04-06T09:01:02;7.60;;;7.10;;
9334;SDS011;4706;41.844;26.082;2023-04-06T09:03:32;10.88;;;8.38;;
9334;SDS011;4706;41.844;26.082;2023-04-06T09:06:02;8.50;;;6.85;;
9334;SDS011;4706;41.844;26.082;2023-04-06T09:08:29;16.17;;;7.72;;
9334;SDS011;4706;41.844;26.082;2023-04-06T09:10:55;8.52;;;7.53;;
9334;SDS011;4706;41.844;26.082;2023-04-06T09:13:20;9.35;;;8.55;;
9334;SDS011;4706;41.844;26.082;2023-04-06T09:15:46;7.38;;;6.63;;
9334;SDS011;4706;41.844;26.082;2023-04-06T09:18:11;6.70;;;6.20;;
9334;SDS011;4706;41.844;26.082;2023-04-06T09:20:37;7.70;;;6.45;;
9334;SDS011;4706;41.844;26.082;2023-04-06T09:23:02;7.70;;;6.47;;
9334;SDS011;4706;41.844;26.082;2023-04-06T09:25:28;6.50;;;6.00;;
9334;SDS011;4706;41.844;26.082;2023-04-06T09:28:13;7.25;;;6.65;;
9334;SDS011;4706;41.844;26.082;2023-04-06T09:30:47;6.78;;;6.13;;
9334;SDS011;4706;41.844;26.082;2023-04-06T09:33:13;7.50;;;6.30;;
9334;SDS011;4706;41.844;26.082;2023-04-06T09:35:50;6.03;;;5.43;;
9334;SDS011;4706;41.844;26.082;2023-04-06T09:38:16;6.18;;;5.63;;
9334;SDS011;4706;41.844;26.082;2023-04-06T09:40:51;5.95;;;5.35;;
9334;SDS011;4706;41.844;26.082;2023-04-06T09:43:28;7.15;;;5.68;;
9334;SDS011;4706;41.844;26.082;2023-04-06T09:45:55;6.07;;;5.47;;
9334;SDS011;4706;41.844;26.082;2023-04-06T09:48:22;6.25;;;5.60;;
9334;SDS011;4706;41.844;26.082;2023-04-06T09:50:50;6.18;;;5.68;;
9334;SDS011;4706;41.844;26.082;2023-04-06T09:53:20;6.15;;;5.65;;
9334;SDS011;4706;41.844;26.082;2023-04-06T09:55:50;8.32;;;6.10;;
9334;SDS011;4706;41.844;26.082;2023-04-06T09:58:20;5.82;;;5.40;;
9334;SDS011;4706;41.844;26.082;2023-04-06T10:00:58;9.38;;;5.68;;
9334;SDS011;4706;41.844;26.082;2023-04-06T10:06:04;6.30;;;5.80;;
9334;SDS011;4706;41.844;26.082;2023-04-06T10:08:32;7.10;;;6.38;;
9334;SDS011;4706;41.844;26.082;2023-04-06T10:11:00;6.40;;;5.80;;
9334;SDS011;4706;41.844;26.082;2023-04-06T10:13:27;6.68;;;6.07;;
9334;SDS011;4706;41.844;26.082;2023-04-06T10:15:54;5.65;;;5.25;;
9334;SDS011;4706;41.844;26.082;2023-04-06T10:18:20;5.43;;;4.93;;
9334;SDS011;4706;41.844;26.082;2023-04-06T10:21:06;5.57;;;5.18;;
9334;SDS011;4706;41.844;26.082;2023-04-06T10:23:52;10.23;;;6.55;;
9334;SDS011;4706;41.844;26.082;2023-04-06T10:26:26;7.65;;;7.05;;
9334;SDS011;4706;41.844;26.082;2023-04-06T10:28:51;8.77;;;7.80;;
9334;SDS011;4706;41.844;26.082;2023-04-06T10:31:26;6.13;;;5.63;;
9334;SDS011;4706;41.844;26.082;2023-04-06T10:33:54;6.20;;;5.60;;
9334;SDS011;4706;41.844;26.082;2023-04-06T10:36:21;5.68;;;5.22;;
9334;SDS011;4706;41.844;26.082;2023-04-06T10:38:53;6.20;;;5.60;;
9334;SDS011;4706;41.844;26.082;2023-04-06T10:41:21;5.50;;;5.00;;
9334;SDS011;4706;41.844;26.082;2023-04-06T10:43:54;5.90;;;5.40;;
9334;SDS011;4706;41.844;26.082;2023-04-06T10:46:28;5.68;;;5.20;;
9334;SDS011;4706;41.844;26.082;2023-04-06T10:48:55;6.15;;;5.18;;
9334;SDS011;4706;41.844;26.082;2023-04-06T10:51:24;5.30;;;4.90;;
9334;SDS011;4706;41.844;26.082;2023-04-06T10:53:52;5.78;;;5.28;;
9334;SDS011;4706;41.844;26.082;2023-04-06T10:56:21;5.70;;;5.30;;
9334;SDS011;4706;41.844;26.082;2023-04-06T10:58:48;7.15;;;5.80;;
9334;SDS011;4706;41.844;26.082;2023-04-06T11:01:18;5.82;;;5.20;;
9334;SDS011;4706;41.844;26.082;2023-04-06T11:03:49;9.10;;;8.48;;
9334;SDS011;4706;41.844;26.082;2023-04-06T11:06:23;7.97;;;6.60;;
9334;SDS011;4706;41.844;26.082;2023-04-06T11:08:51;5.90;;;5.20;;
9334;SDS011;4706;41.844;26.082;2023-04-06T11:11:17;5.78;;;5.28;;
9334;SDS011;4706;41.844;26.082;2023-04-06T11:13:50;5.13;;;4.72;;
9334;SDS011;4706;41.844;26.082;2023-04-06T11:16:24;6.50;;;5.90;;
9334;SDS011;4706;41.844;26.082;2023-04-06T11:19:00;4.60;;;4.30;;
9334;SDS011;4706;41.844;26.082;2023-04-06T11:24:09;5.82;;;5.38;;
9334;SDS011;4706;41.844;26.082;2023-04-06T11:26:42;5.70;;;5.25;;
9334;SDS011;4706;41.844;26.082;2023-04-06T11:29:13;8.05;;;7.35;;
9334;SDS011;4706;41.844;26.082;2023-04-06T11:31:50;8.63;;;7.63;;
9334;SDS011;4706;41.844;26.082;2023-04-06T11:34:18;5.50;;;5.00;;
9334;SDS011;4706;41.844;26.082;2023-04-06T11:36:46;5.20;;;4.80;;
9334;SDS011;4706;41.844;26.082;2023-04-06T11:39:13;4.47;;;4.18;;
9334;SDS011;4706;41.844;26.082;2023-04-06T11:41:47;6.10;;;5.60;;
9334;SDS011;4706;41.844;26.082;2023-04-06T11:44:28;5.00;;;4.50;;
9334;SDS011;4706;41.844;26.082;2023-04-06T11:46:56;5.40;;;4.90;;
9334;SDS011;4706;41.844;26.082;2023-04-06T11:49:26;4.03;;;3.72;;
9334;SDS011;4706;41.844;26.082;2023-04-06T11:51:52;15.30;;;10.00;;
9334;SDS011;4706;41.844;26.082;2023-04-06T11:54:18;4.60;;;4.20;;
9334;SDS011;4706;41.844;26.082;2023-04-06T11:56:57;4.90;;;4.43;;
9334;SDS011;4706;41.844;26.082;2023-04-06T11:59:23;6.22;;;5.65;;
9334;SDS011;4706;41.844;26.082;2023-04-06T12:01:48;4.63;;;4.18;;
9334;SDS011;4706;41.844;26.082;2023-04-06T12:04:14;4.95;;;4.55;;
9334;SDS011;4706;41.844;26.082;2023-04-06T12:06:40;8.57;;;6.10;;
9334;SDS011;4706;41.844;26.082;2023-04-06T12:09:05;5.75;;;4.20;;
9334;SDS011;4706;41.844;26.082;2023-04-06T12:11:31;3.92;;;3.22;;
9334;SDS011;4706;41.844;26.082;2023-04-06T12:13:56;5.85;;;4.95;;
9334;SDS011;4706;41.844;26.082;2023-04-06T12:16:22;4.57;;;4.20;;
9334;SDS011;4706;41.844;26.082;2023-04-06T12:18:47;3.90;;;3.60;;
9334;SDS011;4706;41.844;26.082;2023-04-06T12:21:13;4.88;;;4.38;;
9334;SDS011;4706;41.844;26.082;2023-04-06T12:23:38;6.57;;;3.60;;
9334;SDS011;4706;41.844;26.082;2023-04-06T12:26:04;3.55;;;3.30;;
9334;SDS011;4706;41.844;26.082;2023-04-06T12:28:30;5.20;;;4.70;;
9334;SDS011;4706;41.844;26.082;2023-04-06T12:30:55;12.30;;;5.60;;
9334;SDS011;4706;41.844;26.082;2023-04-06T12:33:20;4.80;;;4.25;;
9334;SDS011;4706;41.844;26.082;2023-04-06T12:35:46;4.35;;;4.05;;
9334;SDS011;4706;41.844;26.082;2023-04-06T12:38:12;6.28;;;5.68;;
9334;SDS011;4706;41.844;26.082;2023-04-06T12:40:38;4.85;;;4.40;;
9334;SDS011;4706;41.844;26.082;2023-04-06T12:43:03;4.68;;;3.53;;
9334;SDS011;4706;41.844;26.082;2023-04-06T12:45:32;3.60;;;3.03;;
9334;SDS011;4706;41.844;26.082;2023-04-06T12:47:58;3.28;;;3.08;;
9334;SDS011;4706;41.844;26.082;2023-04-06T12:50:23;9.35;;;8.27;;
9334;SDS011;4706;41.844;26.082;2023-04-06T12:52:49;7.88;;;6.78;;
9334;SDS011;4706;41.844;26.082;2023-04-06T12:55:15;7.65;;;5.38;;
9334;SDS011;4706;41.844;26.082;2023-04-06T12:57:40;4.70;;;3.58;;
9334;SDS011;4706;41.844;26.082;2023-04-06T13:00:06;3.80;;;3.50;;
9334;SDS011;4706;41.844;26.082;2023-04-06T13:02:32;4.47;;;3.88;;
9334;SDS011;4706;41.844;26.082;2023-04-06T13:04:58;3.97;;;3.58;;
9334;SDS011;4706;41.844;26.082;2023-04-06T13:07:23;5.55;;;4.10;;
9334;SDS011;4706;41.844;26.082;2023-04-06T13:09:49;6.18;;;4.05;;
9334;SDS011;4706;41.844;26.082;2023-04-06T13:12:15;5.55;;;3.83;;
9334;SDS011;4706;41.844;26.082;2023-04-06T13:14:41;4.53;;;4.13;;
9334;SDS011;4706;41.844;26.082;2023-04-06T13:17:06;3.72;;;3.40;;
9334;SDS011;4706;41.844;26.082;2023-04-06T13:19:32;4.03;;;3.72;;
9334;SDS011;4706;41.844;26.082;2023-04-06T13:21:58;4.35;;;3.90;;
9334;SDS011;4706;41.844;26.082;2023-04-06T13:24:23;8.88;;;7.97;;
9334;SDS011;4706;41.844;26.082;2023-04-06T13:26:49;4.20;;;3.88;;
9334;SDS011;4706;41.844;26.082;2023-04-06T13:29:15;4.20;;;3.80;;
9334;SDS011;4706;41.844;26.082;2023-04-06T13:31:41;7.18;;;6.03;;
9334;SDS011;4706;41.844;26.082;2023-04-06T13:34:06;5.43;;;4.85;;
9334;SDS011;4706;41.844;26.082;2023-04-06T13:36:32;5.65;;;4.22;;
9334;SDS011;4706;41.844;26.082;2023-04-06T13:38:58;8.43;;;6.00;;
9334;SDS011;4706;41.844;26.082;2023-04-06T13:41:24;8.32;;;5.68;;
9334;SDS011;4706;41.844;26.082;2023-04-06T13:43:51;6.55;;;4.22;;
9334;SDS011;4706;41.844;26.082;2023-04-06T13:46:17;8.15;;;4.07;;
9334;SDS011;4706;41.844;26.082;2023-04-06T13:48:43;4.55;;;4.15;;
9334;SDS011;4706;41.844;26.082;2023-04-06T13:53:36;5.22;;;3.58;;
9334;SDS011;4706;41.844;26.082;2023-04-06T13:56:01;7.32;;;4.13;;
9334;SDS011;4706;41.844;26.082;2023-04-06T13:58:26;4.95;;;4.25;;
9334;SDS011;4706;41.844;26.082;2023-04-06T14:00:52;5.43;;;4.45;;
9334;SDS011;4706;41.844;26.082;2023-04-06T14:03:18;4.50;;;3.92;;
9334;SDS011;4706;41.844;26.082;2023-04-06T14:05:46;5.97;;;4.95;;
9334;SDS011;4706;41.844;26.082;2023-04-06T14:08:12;7.53;;;5.50;;
9334;SDS011;4706;41.844;26.082;2023-04-06T14:10:38;13.10;;;6.85;;
9334;SDS011;4706;41.844;26.082;2023-04-06T14:13:05;6.75;;;5.90;;
9334;SDS011;4706;41.844;26.082;2023-04-06T14:15:31;8.35;;;4.75;;
9334;SDS011;4706;41.844;26.082;2023-04-06T14:17:57;5.68;;;4.30;;
9334;SDS011;4706;41.844;26.082;2023-04-06T14:20:22;5.03;;;4.50;;
9334;SDS011;4706;41.844;26.082;2023-04-06T14:22:48;4.70;;;4.30;;
9334;SDS011;4706;41.844;26.082;2023-04-06T14:25:14;5.90;;;4.50;;
9334;SDS011;4706;41.844;26.082;2023-04-06T14:27:41;9.00;;;8.30;;
9334;SDS011;4706;41.844;26.082;2023-04-06T14:30:07;6.88;;;6.38;;
9334;SDS011;4706;41.844;26.082;2023-04-06T14:32:33;4.90;;;4.40;;
9334;SDS011;4706;41.844;26.082;2023-04-06T14:34:59;5.88;;;5.28;;
9334;SDS011;4706;41.844;26.082;2023-04-06T14:37:25;4.68;;;4.28;;
9334;SDS011;4706;41.844;26.082;2023-04-06T14:39:51;4.80;;;4.40;;
9334;SDS011;4706;41.844;26.082;2023-04-06T14:42:16;8.60;;;6.45;;
9334;SDS011;4706;41.844;26.082;2023-04-06T14:44:42;6.20;;;5.28;;
9334;SDS011;4706;41.844;26.082;2023-04-06T14:47:10;4.75;;;4.35;;
9334;SDS011;4706;41.844;26.082;2023-04-06T14:49:36;10.48;;;7.63;;
9334;SDS011;4706;41.844;26.082;2023-04-06T14:52:02;5.50;;;5.00;;
9334;SDS011;4706;41.844;26.082;2023-04-06T14:54:28;5.72;;;5.22;;